createdAt,value
2022-11-05T00:01:50.838Z,1.53
2022-11-05T00:04:36.491Z,1.40
2022-11-05T00:07:34.158Z,1.23
2022-11-05T00:10:06.394Z,1.50
2022-11-05T00:12:51.552Z,1.60
2022-11-05T00:15:37.109Z,1.80
2022-11-05T00:18:04.134Z,1.50
2022-11-05T00:20:30.956Z,1.80
2022-11-05T00:23:20.480Z,1.43
2022-11-05T00:26:00.956Z,1.50
2022-11-05T00:28:28.657Z,1.47
2022-11-05T00:30:59.832Z,1.37
2022-11-05T00:33:26.588Z,1.27
2022-11-05T00:35:53.389Z,1.47
2022-11-05T00:38:20.195Z,1.37
2022-11-05T00:40:46.978Z,2.13
2022-11-05T00:43:32.257Z,1.30
2022-11-05T00:45:59.088Z,1.50
2022-11-05T00:48:44.453Z,1.70
2022-11-05T00:51:11.212Z,1.53
2022-11-05T00:53:38.013Z,1.40
2022-11-05T00:56:04.871Z,1.87
2022-11-05T00:58:31.644Z,1.50
2022-11-05T01:00:59.086Z,1.80
2022-11-05T01:03:27.943Z,1.53
2022-11-05T01:05:56.725Z,1.47
2022-11-05T01:08:24.584Z,1.57
2022-11-05T01:10:56.193Z,1.60
2022-11-05T01:13:25.268Z,1.63
2022-11-05T01:15:52.124Z,1.53
2022-11-05T01:18:19.382Z,1.63
2022-11-05T01:20:46.368Z,1.67
2022-11-05T01:23:14.017Z,1.67
2022-11-05T01:25:44.492Z,1.57
2022-11-05T01:28:11.329Z,1.97
2022-11-05T01:30:38.185Z,1.50
2022-11-05T01:33:05.008Z,1.57
2022-11-05T01:35:32.322Z,2.27
2022-11-05T01:37:59.229Z,1.77
2022-11-05T01:40:26.098Z,2.00
2022-11-05T01:42:52.966Z,2.23
2022-11-05T01:45:24.420Z,2.30
2022-11-05T01:47:54.073Z,2.30
2022-11-05T01:50:43.128Z,3.07
2022-11-05T01:53:15.261Z,2.50
2022-11-05T01:55:48.211Z,2.87
2022-11-05T01:58:16.874Z,3.03
2022-11-05T02:00:43.639Z,2.90
2022-11-05T02:03:10.681Z,2.97
2022-11-05T02:05:37.712Z,3.37
2022-11-05T02:08:04.707Z,3.30
2022-11-05T02:10:31.557Z,4.03
2022-11-05T02:12:58.392Z,3.70
2022-11-05T02:15:36.869Z,3.90
2022-11-05T02:18:11.300Z,4.23
2022-11-05T02:21:13.345Z,3.73
2022-11-05T02:24:03.434Z,3.90
2022-11-05T02:26:49.021Z,4.30
2022-11-05T02:29:45.510Z,3.40
2022-11-05T02:32:27.361Z,3.73
2022-11-05T02:35:26.293Z,3.90
2022-11-05T02:38:13.441Z,4.07
2022-11-05T02:41:02.195Z,3.97
2022-11-05T02:43:41.970Z,3.80
2022-11-05T02:46:27.853Z,4.87
2022-11-05T02:49:12.805Z,4.17
2022-11-05T02:51:52.460Z,3.87
2022-11-05T02:54:26.977Z,3.67
2022-11-05T02:56:53.926Z,4.20
2022-11-05T02:59:20.695Z,4.37
2022-11-05T03:01:47.718Z,4.17
2022-11-05T03:04:15.525Z,3.83
2022-11-05T03:06:51.324Z,4.67
2022-11-05T03:09:36.888Z,5.27
2022-11-05T03:12:15.040Z,4.33
2022-11-05T03:14:41.838Z,5.03
2022-11-05T03:17:26.497Z,4.43
2022-11-05T03:20:16.757Z,4.67
2022-11-05T03:22:49.526Z,5.00
2022-11-05T03:25:17.871Z,4.80
2022-11-05T03:27:46.258Z,5.27
2022-11-05T03:30:13.639Z,5.07
2022-11-05T03:32:42.344Z,4.93
2022-11-05T03:35:13.009Z,5.17
2022-11-05T03:37:40.675Z,5.40
2022-11-05T03:40:08.560Z,5.30
2022-11-05T03:42:37.084Z,4.90
2022-11-05T03:45:09.514Z,5.10
2022-11-05T03:47:38.430Z,6.40
2022-11-05T03:50:09.517Z,5.10
2022-11-05T03:52:39.195Z,5.30
2022-11-05T03:55:06.868Z,5.63
2022-11-05T03:57:36.610Z,6.00
2022-11-05T04:00:06.313Z,5.80
2022-11-05T04:02:33.290Z,5.83
2022-11-05T04:05:00.929Z,5.67
2022-11-05T04:07:46.260Z,6.00
2022-11-05T04:10:31.840Z,6.17
2022-11-05T04:13:17.417Z,7.03
2022-11-05T04:16:02.834Z,6.80
2022-11-05T04:18:29.620Z,7.10
2022-11-05T04:21:15.065Z,6.80
2022-11-05T04:24:00.514Z,6.27
2022-11-05T04:26:27.275Z,7.03
2022-11-05T04:29:12.440Z,6.47
2022-11-05T04:31:39.217Z,7.97
2022-11-05T04:34:06.061Z,7.23
2022-11-05T04:36:32.906Z,6.83
2022-11-05T04:38:59.674Z,7.40
2022-11-05T04:41:26.565Z,7.27
2022-11-05T04:43:53.329Z,7.23
2022-11-05T04:46:20.100Z,7.90
2022-11-05T04:48:46.921Z,8.07
2022-11-05T04:51:13.827Z,7.57
2022-11-05T04:53:40.575Z,7.77
2022-11-05T04:56:18.113Z,8.10
2022-11-05T04:58:45.013Z,7.97
2022-11-05T05:01:19.236Z,8.00
2022-11-05T05:03:49.857Z,8.00
2022-11-05T05:06:16.944Z,8.63
2022-11-05T05:08:43.701Z,8.10
2022-11-05T05:11:14.160Z,8.13
2022-11-05T05:13:41.005Z,8.03
2022-11-05T05:16:08.631Z,8.10
2022-11-05T05:18:35.676Z,8.53
2022-11-05T05:21:20.976Z,8.40
2022-11-05T05:23:48.385Z,8.73
2022-11-05T05:26:16.267Z,8.00
2022-11-05T05:28:43.086Z,9.60
2022-11-05T05:31:09.969Z,9.43
2022-11-05T05:33:36.761Z,8.63
2022-11-05T05:36:07.096Z,8.43
2022-11-05T05:38:37.859Z,8.93
2022-11-05T05:41:05.784Z,9.10
2022-11-05T05:43:33.148Z,10.97
2022-11-05T05:46:04.134Z,9.03
2022-11-05T05:48:30.948Z,8.53
2022-11-05T05:51:02.205Z,9.00
2022-11-05T05:53:29.395Z,8.97
2022-11-05T05:55:56.447Z,8.97
2022-11-05T05:58:23.992Z,9.80
2022-11-05T06:00:50.818Z,10.10
2022-11-05T06:03:17.655Z,10.17
2022-11-05T06:05:44.445Z,9.60
2022-11-05T06:08:11.209Z,9.70
2022-11-05T06:10:38.225Z,9.70
2022-11-05T06:13:05.384Z,9.47
2022-11-05T06:15:35.815Z,10.37
2022-11-05T06:18:03.064Z,10.37
2022-11-05T06:20:29.852Z,10.60
2022-11-05T06:22:59.457Z,10.33
2022-11-05T06:25:26.384Z,10.33
2022-11-05T06:27:53.651Z,10.47
2022-11-05T06:30:21.762Z,10.10
2022-11-05T06:32:48.621Z,10.73
2022-11-05T06:35:15.519Z,10.40
2022-11-05T06:37:42.446Z,9.70
2022-11-05T06:40:09.484Z,10.47
2022-11-05T06:42:36.277Z,10.20
2022-11-05T06:45:03.143Z,10.67
2022-11-05T06:47:29.971Z,10.03
2022-11-05T06:49:57.408Z,9.63
2022-11-05T06:52:24.264Z,10.07
2022-11-05T06:54:51.071Z,10.10
2022-11-05T06:57:17.896Z,10.50
2022-11-05T06:59:44.672Z,9.97
2022-11-05T07:02:12.547Z,10.80
2022-11-05T07:04:39.428Z,11.13
2022-11-05T07:07:06.214Z,9.90
2022-11-05T07:09:33.045Z,10.00
2022-11-05T07:11:59.860Z,10.20
2022-11-05T07:14:26.634Z,10.43
2022-11-05T07:16:53.391Z,10.40
2022-11-05T07:19:20.211Z,10.47
2022-11-05T07:21:48.710Z,10.17
2022-11-05T07:24:15.565Z,10.00
2022-11-05T07:26:42.580Z,9.70
2022-11-05T07:29:09.368Z,10.23
2022-11-05T07:31:36.173Z,10.73
2022-11-05T07:34:03.969Z,10.50
2022-11-05T07:36:30.785Z,10.50
2022-11-05T07:39:00.576Z,10.20
2022-11-05T07:41:28.019Z,10.10
2022-11-05T07:43:54.823Z,9.70
2022-11-05T07:46:21.620Z,9.33
2022-11-05T07:48:48.432Z,9.57
2022-11-05T07:51:15.241Z,9.50
2022-11-05T07:53:45.283Z,10.43
2022-11-05T07:56:13.020Z,9.17
2022-11-05T07:58:39.897Z,8.10
2022-11-05T08:01:07.347Z,9.03
2022-11-05T08:03:34.530Z,8.67
2022-11-05T08:06:01.532Z,9.13
2022-11-05T08:08:29.347Z,8.60
2022-11-05T08:11:05.844Z,7.90
2022-11-05T08:13:33.174Z,8.53
2022-11-05T08:16:01.650Z,8.67
2022-11-05T08:18:31.711Z,8.00
2022-11-05T08:20:59.537Z,8.53
2022-11-05T08:23:27.284Z,8.40
2022-11-05T08:25:55.295Z,8.90
2022-11-05T08:28:22.204Z,8.60
2022-11-05T08:30:50.428Z,7.67
2022-11-05T08:33:17.405Z,7.63
2022-11-05T08:35:44.339Z,7.80
2022-11-05T08:38:13.843Z,8.53
2022-11-05T08:40:40.969Z,7.93
2022-11-05T08:43:08.413Z,8.70
2022-11-05T08:45:38.357Z,7.83
2022-11-05T08:48:07.432Z,7.97
2022-11-05T08:50:34.447Z,8.20
2022-11-05T08:53:01.253Z,8.20
2022-11-05T08:55:28.116Z,8.70
2022-11-05T08:57:56.475Z,8.97
2022-11-05T09:00:23.297Z,7.87
2022-11-05T09:02:50.160Z,8.60
2022-11-05T09:05:17.146Z,9.20
2022-11-05T09:07:44.033Z,8.63
2022-11-05T09:10:10.823Z,8.07
2022-11-05T09:12:37.649Z,8.40
2022-11-05T09:15:04.843Z,8.50
2022-11-05T09:17:31.647Z,9.57
2022-11-05T09:19:58.748Z,7.50
2022-11-05T09:22:25.540Z,7.83
2022-11-05T09:24:52.313Z,7.50
2022-11-05T09:27:19.156Z,7.67
2022-11-05T09:29:45.907Z,8.63
2022-11-05T09:32:12.677Z,8.20
2022-11-05T09:34:39.804Z,8.50
2022-11-05T09:37:06.565Z,7.60
2022-11-05T09:39:33.356Z,7.60
2022-11-05T09:42:06.622Z,7.10
2022-11-05T09:45:11.789Z,6.27
2022-11-05T09:47:43.473Z,7.27
2022-11-05T09:50:15.652Z,6.53
2022-11-05T09:52:42.457Z,6.77
2022-11-05T09:55:23.786Z,6.87
2022-11-05T09:57:57.203Z,6.67
2022-11-05T10:00:24.088Z,6.60
2022-11-05T10:02:55.576Z,5.53
2022-11-05T10:05:23.378Z,6.50
2022-11-05T10:07:54.240Z,6.97
2022-11-05T10:10:40.763Z,6.47
2022-11-05T10:13:21.211Z,6.30
2022-11-05T10:16:22.924Z,6.70
2022-11-05T10:18:58.632Z,6.07
2022-11-05T10:21:44.576Z,7.20
2022-11-05T10:24:15.624Z,7.13
2022-11-05T10:26:43.458Z,7.50
2022-11-05T10:29:13.100Z,9.27
2022-11-05T10:31:39.936Z,7.20
2022-11-05T10:34:07.692Z,7.73
2022-11-05T10:36:36.177Z,7.57
2022-11-05T10:39:17.470Z,6.73
2022-11-05T10:42:06.029Z,7.00
2022-11-05T10:44:47.749Z,7.40
2022-11-05T10:47:50.612Z,7.80
2022-11-05T10:50:19.597Z,7.53
2022-11-05T10:52:52.248Z,6.90
2022-11-05T10:55:23.629Z,8.27
2022-11-05T10:57:50.495Z,8.20
2022-11-05T11:00:18.137Z,7.33
2022-11-05T11:02:53.256Z,7.70
2022-11-05T11:05:35.564Z,8.23
2022-11-05T11:08:11.292Z,6.83
2022-11-05T11:10:41.746Z,7.60
2022-11-05T11:13:29.673Z,7.67
2022-11-05T11:16:14.787Z,6.33
2022-11-05T11:18:42.301Z,6.47
2022-11-05T11:21:17.535Z,6.10
2022-11-05T11:23:44.631Z,5.93
2022-11-05T11:26:11.521Z,5.80
2022-11-05T11:28:50.453Z,6.50
2022-11-05T11:31:25.292Z,7.10
2022-11-05T11:33:57.417Z,6.20
2022-11-05T11:36:52.133Z,6.20
2022-11-05T11:39:28.796Z,7.13
2022-11-05T11:41:57.789Z,6.73
2022-11-05T11:44:29.845Z,7.00
2022-11-05T11:47:09.621Z,8.30
2022-11-05T11:49:45.099Z,8.87
2022-11-05T11:52:14.417Z,7.47
2022-11-05T11:54:41.231Z,8.33
2022-11-05T11:57:21.136Z,7.27
2022-11-05T12:00:07.640Z,8.30
2022-11-05T12:02:44.892Z,8.37
2022-11-05T12:05:23.158Z,8.10
2022-11-05T12:07:52.991Z,8.30
2022-11-05T12:10:28.036Z,8.07
2022-11-05T12:12:54.793Z,8.20
2022-11-05T12:15:56.169Z,8.40
2022-11-05T12:18:27.059Z,7.77
2022-11-05T12:21:52.703Z,7.63
2022-11-05T12:24:26.548Z,8.00
2022-11-05T12:26:53.520Z,8.23
2022-11-05T12:29:44.154Z,7.93
2022-11-05T12:32:38.556Z,7.63
2022-11-05T12:35:05.473Z,8.80
2022-11-05T12:37:47.309Z,8.63
2022-11-05T12:40:51.657Z,8.80
2022-11-05T12:43:48.776Z,9.70
2022-11-05T12:46:32.702Z,9.33
2022-11-05T12:49:13.873Z,9.77
2022-11-05T12:52:02.474Z,9.27
2022-11-05T12:54:51.235Z,10.20
2022-11-05T12:57:18.004Z,9.80
2022-11-05T13:00:26.260Z,9.63
2022-11-05T13:03:06.973Z,9.20
2022-11-05T13:06:24.280Z,9.03
2022-11-05T13:09:01.936Z,9.17
2022-11-05T13:11:48.764Z,9.97
2022-11-05T13:14:18.440Z,9.70
2022-11-05T13:16:47.785Z,9.23
2022-11-05T13:19:41.918Z,9.97
2022-11-05T13:22:37.760Z,9.27
2022-11-05T13:25:25.894Z,9.47
2022-11-05T13:27:55.521Z,9.80
2022-11-05T13:30:24.705Z,9.10
2022-11-05T13:33:10.724Z,9.73
2022-11-05T13:35:42.224Z,10.60
2022-11-05T13:38:28.496Z,9.90
2022-11-05T13:41:05.763Z,9.63
2022-11-05T13:43:57.915Z,9.50
2022-11-05T13:46:42.755Z,9.53
2022-11-05T13:49:44.993Z,9.40
2022-11-05T13:52:30.709Z,11.37
2022-11-05T13:55:13.447Z,9.57
2022-11-05T13:57:56.089Z,9.57
2022-11-05T14:00:24.344Z,9.10
2022-11-05T14:03:02.571Z,9.00
2022-11-05T14:05:35.410Z,9.67
2022-11-05T14:08:11.275Z,9.57
2022-11-05T14:10:42.521Z,9.50
2022-11-05T14:13:22.592Z,10.07
2022-11-05T14:16:23.734Z,10.70
2022-11-05T14:19:18.243Z,10.10
2022-11-05T14:21:49.518Z,8.87
2022-11-05T14:24:40.349Z,8.17
2022-11-05T14:27:09.905Z,9.10
2022-11-05T14:29:46.177Z,8.90
2022-11-05T14:32:18.902Z,9.23
2022-11-05T14:35:21.454Z,9.03
2022-11-05T14:37:57.643Z,8.43
2022-11-05T14:40:30.504Z,6.83
2022-11-05T14:43:16.790Z,7.20
2022-11-05T14:46:07.856Z,7.30
2022-11-05T14:48:40.761Z,6.80
2022-11-05T14:51:38.542Z,6.10
2022-11-05T14:54:08.186Z,6.37
2022-11-05T14:56:45.011Z,7.13
2022-11-05T14:59:33.405Z,6.33
2022-11-05T15:02:05.202Z,6.73
2022-11-05T15:04:33.361Z,7.27
2022-11-05T15:07:03.257Z,6.90
2022-11-05T15:09:41.283Z,7.80
2022-11-05T15:12:24.877Z,7.30
2022-11-05T15:15:21.200Z,6.70
2022-11-05T15:18:05.794Z,7.23
2022-11-05T15:20:40.555Z,7.53
2022-11-05T15:23:10.070Z,6.93
2022-11-05T15:25:58.390Z,5.93
2022-11-05T15:28:32.330Z,6.03
2022-11-05T15:31:04.404Z,5.87
2022-11-05T15:33:31.832Z,6.63
2022-11-05T15:36:23.272Z,5.53
2022-11-05T15:39:15.201Z,5.87
2022-11-05T15:41:36.847Z,6.03
2022-11-05T15:44:03.650Z,5.80
2022-11-05T15:46:30.912Z,5.20
2022-11-05T15:48:59.959Z,5.43
2022-11-05T15:51:26.772Z,5.57
2022-11-05T15:54:23.924Z,6.20
2022-11-05T15:56:51.658Z,6.83
2022-11-05T15:59:19.917Z,6.13
2022-11-05T16:02:02.040Z,5.70
2022-11-05T16:04:33.469Z,5.93
2022-11-05T16:07:07.207Z,6.00
2022-11-05T16:09:36.242Z,5.73
2022-11-05T16:12:18.278Z,5.80
2022-11-05T16:15:06.516Z,6.70
2022-11-05T16:17:52.968Z,5.33
2022-11-05T16:20:24.489Z,5.73
2022-11-05T16:22:53.369Z,5.70
2022-11-05T16:25:32.187Z,5.57
2022-11-05T16:27:59.220Z,5.87
2022-11-05T16:30:26.282Z,5.53
2022-11-05T16:32:53.181Z,5.40
2022-11-05T16:35:21.768Z,6.03
2022-11-05T16:37:52.029Z,5.73
2022-11-05T16:40:23.071Z,5.70
2022-11-05T16:42:51.582Z,5.00
2022-11-05T16:45:23.563Z,4.80
2022-11-05T16:47:50.488Z,4.93
2022-11-05T16:50:18.632Z,5.63
2022-11-05T16:52:46.185Z,5.10
2022-11-05T16:55:14.098Z,5.70
2022-11-05T16:57:42.472Z,4.57
2022-11-05T17:00:11.878Z,5.77
2022-11-05T17:02:38.777Z,5.07
2022-11-05T17:05:10.501Z,4.87
2022-11-05T17:07:41.419Z,5.30
2022-11-05T17:10:08.489Z,5.40
2022-11-05T17:12:36.382Z,4.63
2022-11-05T17:15:03.225Z,4.60
2022-11-05T17:17:30.015Z,5.53
2022-11-05T17:19:56.896Z,5.23
2022-11-05T17:22:23.741Z,5.20
2022-11-05T17:24:50.505Z,5.33
2022-11-05T17:27:17.300Z,5.73
2022-11-05T17:29:44.065Z,7.50
2022-11-05T17:32:10.858Z,5.63
2022-11-05T17:34:37.803Z,5.20
2022-11-05T17:37:04.604Z,5.93
2022-11-05T17:39:31.966Z,6.00
2022-11-05T17:41:58.971Z,6.07
2022-11-05T17:44:25.900Z,5.87
2022-11-05T17:46:52.691Z,6.47
2022-11-05T17:49:19.523Z,7.00
2022-11-05T17:51:46.291Z,6.27
2022-11-05T17:54:13.045Z,5.63
2022-11-05T17:56:44.753Z,5.90
2022-11-05T17:59:11.756Z,6.07
2022-11-05T18:01:43.354Z,5.83
2022-11-05T18:04:10.397Z,7.47
2022-11-05T18:06:37.917Z,6.53
2022-11-05T18:09:05.760Z,7.13
2022-11-05T18:11:33.296Z,6.03
2022-11-05T18:14:00.365Z,6.47
2022-11-05T18:16:27.436Z,5.90
2022-11-05T18:18:54.215Z,5.87
2022-11-05T18:21:20.989Z,5.70
2022-11-05T18:23:47.782Z,5.87
2022-11-05T18:26:15.496Z,5.13
2022-11-05T18:28:42.629Z,5.83
2022-11-05T18:31:20.553Z,5.97
2022-11-05T18:33:48.513Z,6.43
2022-11-05T18:36:23.515Z,6.00
2022-11-05T18:38:50.530Z,6.00
2022-11-05T18:41:17.376Z,5.63
2022-11-05T18:43:44.265Z,6.33
2022-11-05T18:46:29.303Z,6.53
2022-11-05T18:48:59.080Z,5.80
2022-11-05T18:51:25.979Z,6.10
2022-11-05T18:53:53.989Z,5.80
2022-11-05T18:56:20.840Z,6.07
2022-11-05T18:58:47.599Z,5.73
2022-11-05T19:01:19.188Z,6.10
2022-11-05T19:03:46.192Z,6.50
2022-11-05T19:06:13.185Z,6.40
2022-11-05T19:08:40.065Z,6.20
2022-11-05T19:11:11.296Z,6.20
2022-11-05T19:13:38.408Z,6.13
2022-11-05T19:16:13.651Z,7.40
2022-11-05T19:18:40.632Z,5.97
2022-11-05T19:21:08.951Z,6.43
2022-11-05T19:23:38.881Z,5.57
2022-11-05T19:26:10.252Z,5.90
2022-11-05T19:28:37.801Z,6.60
2022-11-05T19:31:07.109Z,6.53
2022-11-05T19:33:33.873Z,6.07
2022-11-05T19:36:06.555Z,5.90
2022-11-05T19:38:33.441Z,5.97
2022-11-05T19:41:14.017Z,5.93
2022-11-05T19:43:41.427Z,5.97
2022-11-05T19:46:09.998Z,5.60
2022-11-05T19:48:37.282Z,5.47
2022-11-05T19:51:13.025Z,5.57
2022-11-05T19:53:39.900Z,5.63
2022-11-05T19:56:15.297Z,6.00
2022-11-05T19:58:42.248Z,5.33
2022-11-05T20:01:09.926Z,5.27
2022-11-05T20:03:37.823Z,5.80
2022-11-05T20:06:10.357Z,5.53
2022-11-05T20:08:53.407Z,5.70
2022-11-05T20:11:24.023Z,5.63
2022-11-05T20:13:50.889Z,5.90
2022-11-05T20:16:21.855Z,5.33
2022-11-05T20:18:48.725Z,5.30
2022-11-05T20:21:15.545Z,5.50
2022-11-05T20:23:42.511Z,5.30
2022-11-05T20:26:10.383Z,5.00
2022-11-05T20:28:37.792Z,4.90
2022-11-05T20:31:13.029Z,4.87
2022-11-05T20:33:40.768Z,4.90
2022-11-05T20:36:09.503Z,4.37
2022-11-05T20:38:36.355Z,4.77
2022-11-05T20:41:11.432Z,4.63
2022-11-05T20:43:38.854Z,4.90
2022-11-05T20:46:05.708Z,5.33
2022-11-05T20:48:33.412Z,4.87
2022-11-05T20:51:05.366Z,4.87
2022-11-05T20:53:33.125Z,4.93
2022-11-05T20:56:02.557Z,5.37
2022-11-05T20:58:33.467Z,5.20
2022-11-05T21:01:00.319Z,4.90
2022-11-05T21:03:27.300Z,5.60
2022-11-05T21:05:57.323Z,4.80
2022-11-05T21:08:24.114Z,4.50
2022-11-05T21:10:51.494Z,4.80
2022-11-05T21:13:18.588Z,6.10
2022-11-05T21:15:53.217Z,5.30
2022-11-05T21:18:22.848Z,5.17
2022-11-05T21:20:49.936Z,5.23
2022-11-05T21:23:16.864Z,5.30
2022-11-05T21:25:43.873Z,5.00
2022-11-05T21:28:11.549Z,4.67
2022-11-05T21:30:41.666Z,4.97
2022-11-05T21:33:08.850Z,4.40
2022-11-05T21:35:43.831Z,5.87
2022-11-05T21:38:11.419Z,4.87
2022-11-05T21:40:38.566Z,4.93
2022-11-05T21:43:05.533Z,5.10
2022-11-05T21:45:32.575Z,6.17
2022-11-05T21:47:59.376Z,4.80
2022-11-05T21:50:44.760Z,5.63
2022-11-05T21:53:33.641Z,5.27
2022-11-05T21:56:19.172Z,4.87
2022-11-05T21:59:04.503Z,4.70
2022-11-05T22:01:31.872Z,4.37
2022-11-05T22:04:02.883Z,4.20
2022-11-05T22:06:32.986Z,4.60
2022-11-05T22:08:59.819Z,5.20
2022-11-05T22:11:26.588Z,4.47
2022-11-05T22:13:53.505Z,4.53
2022-11-05T22:16:20.297Z,5.40
2022-11-05T22:18:47.079Z,5.03
2022-11-05T22:21:18.274Z,4.50
2022-11-05T22:23:45.060Z,5.10
2022-11-05T22:26:11.875Z,5.27
2022-11-05T22:28:38.670Z,4.80
2022-11-05T22:31:15.211Z,4.97
2022-11-05T22:33:42.152Z,5.20
2022-11-05T22:36:09.262Z,4.77
2022-11-05T22:38:36.073Z,4.70
2022-11-05T22:41:09.228Z,4.97
2022-11-05T22:43:36.343Z,4.80
2022-11-05T22:46:06.900Z,5.67
2022-11-05T22:48:35.159Z,4.20
2022-11-05T22:51:06.029Z,5.67
2022-11-05T22:53:33.821Z,4.70
2022-11-05T22:56:04.737Z,4.63
2022-11-05T22:58:32.060Z,4.83
2022-11-05T23:00:58.898Z,5.53
2022-11-05T23:03:26.437Z,5.07
2022-11-05T23:05:57.832Z,5.17
2022-11-05T23:08:43.297Z,4.93
2022-11-05T23:11:38.399Z,4.90
2022-11-05T23:14:08.806Z,5.20
2022-11-05T23:16:54.378Z,5.20
2022-11-05T23:19:39.771Z,5.07
2022-11-05T23:22:39.478Z,4.77
2022-11-05T23:25:07.709Z,5.00
2022-11-05T23:27:35.534Z,5.27
2022-11-05T23:30:04.682Z,5.00
2022-11-05T23:32:31.745Z,4.93
2022-11-05T23:34:58.880Z,5.13
2022-11-05T23:37:59.531Z,4.93
2022-11-05T23:40:28.571Z,4.90
2022-11-05T23:43:14.081Z,5.33
2022-11-05T23:45:57.446Z,5.70
2022-11-05T23:48:33.804Z,5.20
2022-11-05T23:51:08.835Z,6.00
2022-11-05T23:53:37.363Z,5.30
2022-11-05T23:56:11.958Z,6.17
2022-11-05T23:58:39.126Z,5.10
